Terminal Aerodrome Forecast
Issued by NWS

Home | Current Version | Previous Version | Text Only | Print | Product List | Glossary On
Versions: 1 2 3 4 5 6 7 8 9 10 11 12 13
000
FTUS44 KBMX 221319 AAA
TAFTCL
TAF AMD
KTCL 221319Z 2213/2312 12005KT P6SM BKN250
     FM221500 15012G18KT P6SM BKN040 OVC150
     FM221900 13012G20KT P6SM VCSH BKN040
     FM222100 13012G20KT 5SM SHRA VCTS BKN040CB OVC060 PROB30
      2222/2304 2SM TSRA SCT025CB BKN040=

USA.gov is the U.S. government's official web portal to all federal, state and local government web resources and services.